createdAt,value
2023-03-26T00:01:38.125Z,1.60
2023-03-26T00:04:06.234Z,1.97
2023-03-26T00:06:34.956Z,1.90
2023-03-26T00:09:01.626Z,1.47
2023-03-26T00:11:29.565Z,1.50
2023-03-26T00:13:57.077Z,2.30
2023-03-26T00:16:25.580Z,1.27
2023-03-26T00:18:53.853Z,2.10
2023-03-26T00:21:22.885Z,1.40
2023-03-26T00:23:49.592Z,2.00
2023-03-26T00:26:16.671Z,1.60
2023-03-26T00:28:43.647Z,1.93
2023-03-26T00:31:12.371Z,1.83
2023-03-26T00:33:39.862Z,1.60
2023-03-26T00:36:11.209Z,1.50
2023-03-26T00:38:38.957Z,2.33
2023-03-26T00:41:07.832Z,2.13
2023-03-26T00:43:35.967Z,2.43
2023-03-26T00:46:03.085Z,2.20
2023-03-26T00:48:42.169Z,2.33
2023-03-26T00:51:13.893Z,2.60
2023-03-26T00:53:40.741Z,2.00
2023-03-26T00:56:08.199Z,1.90
2023-03-26T00:58:34.912Z,1.93
2023-03-26T01:01:05.129Z,1.57
2023-03-26T01:03:33.753Z,2.07
2023-03-26T01:06:01.901Z,1.80
2023-03-26T01:08:31.636Z,1.63
2023-03-26T01:11:01.087Z,1.90
2023-03-26T01:13:28.053Z,2.33
2023-03-26T01:15:55.007Z,2.23
2023-03-26T01:18:23.575Z,2.03
2023-03-26T01:20:51.460Z,2.00
2023-03-26T01:23:24.580Z,2.43
2023-03-26T01:26:01.540Z,2.20
2023-03-26T01:28:32.132Z,2.07
2023-03-26T01:31:07.085Z,2.23
2023-03-26T01:33:41.544Z,2.67
2023-03-26T01:36:15.056Z,2.43
2023-03-26T01:38:49.814Z,1.83
2023-03-26T01:41:21.380Z,2.47
2023-03-26T01:43:54.148Z,1.80
2023-03-26T01:46:23.650Z,2.00
2023-03-26T01:48:51.789Z,2.10
2023-03-26T01:51:27.295Z,3.03
2023-03-26T01:53:55.152Z,1.87
2023-03-26T01:56:28.373Z,2.20
2023-03-26T01:59:08.313Z,2.37
2023-03-26T02:01:43.410Z,2.73
2023-03-26T02:04:21.683Z,1.97
2023-03-26T02:06:52.562Z,2.97
2023-03-26T02:09:24.558Z,2.60
2023-03-26T02:11:53.863Z,3.23
2023-03-26T02:14:20.993Z,3.20
2023-03-26T02:16:47.744Z,2.87
2023-03-26T02:19:14.971Z,3.07
2023-03-26T02:21:42.167Z,3.80
2023-03-26T02:24:09.221Z,3.83
2023-03-26T02:26:36.133Z,3.10
2023-03-26T02:29:04.232Z,3.10
2023-03-26T02:31:30.989Z,2.87
2023-03-26T02:33:57.819Z,2.90
2023-03-26T02:36:24.935Z,2.83
2023-03-26T02:38:51.771Z,3.27
2023-03-26T02:41:18.525Z,3.40
2023-03-26T02:43:45.262Z,2.80
2023-03-26T02:46:13.499Z,2.77
2023-03-26T02:48:40.284Z,2.47
2023-03-26T02:51:07.443Z,2.80
2023-03-26T02:53:34.235Z,2.57
2023-03-26T02:56:01.336Z,1.93
2023-03-26T02:58:28.076Z,2.10
2023-03-26T03:00:54.946Z,2.03
2023-03-26T03:03:23.719Z,1.90
2023-03-26T03:05:50.884Z,1.60
2023-03-26T03:08:17.658Z,1.57
2023-03-26T03:10:44.454Z,2.20
2023-03-26T03:13:11.206Z,1.37
2023-03-26T03:15:37.879Z,1.80
2023-03-26T03:18:04.975Z,1.70
2023-03-26T03:20:33.072Z,1.53
2023-03-26T03:22:59.911Z,1.50
2023-03-26T03:25:26.655Z,1.53
2023-03-26T03:27:53.329Z,1.90
2023-03-26T03:30:20.271Z,2.00
2023-03-26T03:32:47.292Z,2.00
2023-03-26T03:35:14.030Z,2.87
2023-03-26T03:37:42.273Z,2.00
2023-03-26T03:40:10.375Z,2.20
2023-03-26T03:42:37.291Z,2.43
2023-03-26T03:45:04.870Z,1.90
2023-03-26T03:47:32.029Z,2.53
2023-03-26T03:49:58.779Z,2.83
2023-03-26T03:52:25.532Z,2.03
2023-03-26T03:54:53.822Z,2.30
2023-03-26T03:57:20.674Z,2.40
2023-03-26T03:59:48.507Z,1.80
2023-03-26T04:02:16.009Z,1.70
2023-03-26T04:04:42.793Z,1.90
2023-03-26T04:07:09.530Z,2.10
2023-03-26T04:09:36.172Z,1.80
2023-03-26T04:12:04.322Z,2.30
2023-03-26T04:14:30.982Z,2.70
2023-03-26T04:16:57.728Z,1.93
2023-03-26T04:19:24.433Z,2.13
2023-03-26T04:21:51.134Z,2.20
2023-03-26T04:24:17.841Z,2.33
2023-03-26T04:26:44.559Z,1.90
2023-03-26T04:29:13.769Z,2.07
2023-03-26T04:31:41.650Z,2.10
2023-03-26T04:34:14.104Z,2.00
2023-03-26T04:36:40.981Z,1.70
2023-03-26T04:39:10.202Z,1.60
2023-03-26T04:41:36.987Z,1.70
2023-03-26T04:44:03.769Z,1.47
2023-03-26T04:46:31.822Z,1.83
2023-03-26T04:48:58.847Z,1.30
2023-03-26T04:51:30.530Z,1.70
2023-03-26T04:53:59.248Z,1.57
2023-03-26T04:56:34.591Z,1.77
2023-03-26T04:59:02.259Z,1.70
2023-03-26T05:01:29.053Z,1.97
2023-03-26T05:03:57.444Z,1.70
2023-03-26T05:06:25.073Z,1.40
2023-03-26T05:08:51.814Z,1.50
2023-03-26T05:11:18.539Z,1.80
2023-03-26T05:13:45.393Z,1.60
2023-03-26T05:16:12.140Z,1.70
2023-03-26T05:18:39.363Z,2.00
2023-03-26T05:21:07.786Z,1.60
2023-03-26T05:23:34.488Z,1.40
2023-03-26T05:26:01.147Z,1.50
2023-03-26T05:28:27.831Z,2.20
2023-03-26T05:30:54.946Z,1.37
2023-03-26T05:33:22.121Z,2.07
2023-03-26T05:35:59.790Z,1.83
2023-03-26T05:38:28.435Z,1.60
2023-03-26T05:40:58.199Z,1.63
2023-03-26T05:43:24.967Z,1.63
2023-03-26T05:45:51.795Z,1.90
2023-03-26T05:48:18.773Z,1.90
2023-03-26T05:50:47.923Z,2.70
2023-03-26T05:53:14.754Z,1.60
2023-03-26T05:55:43.878Z,1.70
2023-03-26T05:58:10.551Z,1.10
2023-03-26T06:00:37.318Z,1.50
2023-03-26T06:03:04.678Z,1.73
2023-03-26T06:05:32.461Z,1.40
2023-03-26T06:07:59.220Z,1.30
2023-03-26T06:10:25.959Z,1.83
2023-03-26T06:12:53.997Z,1.67
2023-03-26T06:15:20.693Z,1.53
2023-03-26T06:17:47.715Z,1.30
2023-03-26T06:20:14.898Z,1.87
2023-03-26T06:22:41.888Z,1.30
2023-03-26T06:25:08.914Z,1.47
2023-03-26T06:27:35.607Z,1.30
2023-03-26T06:30:04.382Z,2.17
2023-03-26T06:32:31.190Z,1.70
2023-03-26T06:34:57.908Z,1.53
2023-03-26T06:37:24.697Z,1.97
2023-03-26T06:39:51.485Z,1.60
2023-03-26T06:42:18.406Z,2.10
2023-03-26T06:44:45.111Z,1.93
2023-03-26T06:47:13.139Z,1.87
2023-03-26T06:49:39.805Z,2.00
2023-03-26T06:52:06.452Z,2.13
2023-03-26T06:54:33.207Z,2.50
2023-03-26T06:56:59.971Z,1.40
2023-03-26T06:59:26.760Z,3.07
2023-03-26T07:01:53.518Z,1.90
2023-03-26T07:04:21.628Z,1.90
2023-03-26T07:06:48.531Z,2.07
2023-03-26T07:09:15.292Z,1.50
2023-03-26T07:11:42.008Z,1.33
2023-03-26T07:14:08.750Z,1.70
2023-03-26T07:16:35.476Z,2.00
2023-03-26T07:19:02.249Z,1.67
2023-03-26T07:21:30.966Z,1.80
2023-03-26T07:23:58.298Z,1.93
2023-03-26T07:26:34.325Z,2.27
2023-03-26T07:29:12.331Z,2.37
2023-03-26T07:31:46.256Z,2.20
2023-03-26T07:34:26.272Z,1.93
2023-03-26T07:37:02.200Z,1.63
2023-03-26T07:39:42.176Z,1.30
2023-03-26T07:42:23.295Z,2.20
2023-03-26T07:44:57.799Z,1.77
2023-03-26T07:47:28.968Z,1.50
2023-03-26T07:49:56.984Z,2.00
2023-03-26T07:52:26.491Z,1.80
2023-03-26T07:54:53.906Z,1.77
2023-03-26T07:57:32.237Z,1.80
2023-03-26T08:00:03.557Z,2.00
2023-03-26T08:03:02.011Z,1.77
2023-03-26T08:05:32.165Z,2.40
2023-03-26T08:08:08.730Z,2.23
2023-03-26T08:10:41.690Z,2.23
2023-03-26T08:13:20.676Z,1.80
2023-03-26T08:15:56.254Z,2.00
2023-03-26T08:18:34.613Z,1.97
2023-03-26T08:21:07.111Z,1.87
2023-03-26T08:23:50.311Z,2.03
2023-03-26T08:26:27.311Z,2.30
2023-03-26T08:29:03.105Z,1.80
2023-03-26T08:31:34.611Z,1.70
2023-03-26T08:34:02.024Z,2.40
2023-03-26T08:36:28.762Z,1.97
2023-03-26T08:38:56.953Z,2.40
2023-03-26T08:41:49.816Z,2.30
2023-03-26T08:44:55.538Z,2.10
2023-03-26T08:47:58.983Z,2.23
2023-03-26T08:50:48.552Z,2.37
2023-03-26T08:53:56.231Z,2.80
2023-03-26T08:56:30.006Z,2.80
2023-03-26T08:59:26.018Z,2.30
2023-03-26T09:02:28.049Z,2.50
2023-03-26T09:05:33.815Z,2.33
2023-03-26T09:08:38.807Z,2.20
2023-03-26T09:11:43.767Z,2.07
2023-03-26T09:14:36.634Z,2.40
2023-03-26T09:17:29.104Z,2.03
2023-03-26T09:20:33.539Z,2.60
2023-03-26T09:23:27.240Z,1.80
2023-03-26T09:26:04.451Z,2.33
2023-03-26T09:29:12.929Z,1.50
2023-03-26T09:34:44.381Z,1.97
2023-03-26T09:37:24.900Z,2.30
2023-03-26T09:40:08.916Z,2.20
2023-03-26T09:42:44.402Z,2.20
2023-03-26T09:45:39.820Z,2.13
2023-03-26T09:48:31.706Z,2.20
2023-03-26T09:51:14.664Z,3.10
2023-03-26T09:54:05.405Z,2.20
2023-03-26T09:56:40.037Z,2.33
2023-03-26T09:59:38.180Z,2.83
2023-03-26T10:02:18.976Z,4.43
2023-03-26T10:05:17.592Z,3.37
2023-03-26T10:08:12.398Z,3.60
2023-03-26T10:10:46.972Z,4.47
2023-03-26T10:13:26.240Z,5.00
2023-03-26T10:16:05.510Z,4.43
2023-03-26T10:18:44.582Z,4.30
2023-03-26T10:21:19.901Z,3.50
2023-03-26T10:24:19.698Z,4.90
2023-03-26T10:27:09.364Z,5.40
2023-03-26T10:30:10.164Z,5.07
2023-03-26T10:32:46.719Z,4.00
2023-03-26T10:35:26.067Z,5.00
2023-03-26T10:38:03.764Z,4.33
2023-03-26T10:40:36.683Z,3.40
2023-03-26T10:43:20.891Z,3.50
2023-03-26T10:46:18.963Z,3.23
2023-03-26T10:49:28.249Z,3.73
2023-03-26T10:51:58.440Z,3.50
2023-03-26T10:54:35.484Z,3.47
2023-03-26T10:57:11.587Z,2.27
2023-03-26T10:59:38.562Z,2.50
2023-03-26T11:02:30.283Z,2.80
2023-03-26T11:05:19.588Z,3.10
2023-03-26T11:07:52.189Z,2.20
2023-03-26T11:10:28.281Z,2.30
2023-03-26T11:13:05.069Z,2.73
2023-03-26T11:15:36.245Z,2.60
2023-03-26T11:18:13.472Z,3.10
2023-03-26T11:20:44.250Z,3.10
2023-03-26T11:23:24.420Z,2.60
2023-03-26T11:26:06.477Z,3.17
2023-03-26T11:29:31.645Z,3.00
2023-03-26T11:32:05.272Z,3.30
2023-03-26T11:34:37.097Z,3.00
2023-03-26T11:37:12.424Z,2.60
2023-03-26T11:39:45.623Z,3.63
2023-03-26T11:42:16.109Z,2.80
2023-03-26T11:44:51.152Z,3.37
2023-03-26T11:47:23.386Z,3.43
2023-03-26T11:49:54.461Z,3.33
2023-03-26T11:52:21.586Z,3.37
2023-03-26T11:54:48.262Z,3.80
2023-03-26T11:57:19.736Z,3.70
2023-03-26T11:59:57.328Z,3.67
2023-03-26T12:02:27.977Z,4.40
2023-03-26T12:05:14.146Z,3.77
2023-03-26T12:07:46.822Z,3.00
2023-03-26T12:10:23.016Z,3.90
2023-03-26T12:12:53.703Z,4.10
2023-03-26T12:15:22.230Z,3.17
2023-03-26T12:17:50.515Z,3.77
2023-03-26T12:20:33.256Z,3.80
2023-03-26T12:23:01.732Z,3.10
2023-03-26T12:25:29.838Z,3.43
2023-03-26T12:27:59.937Z,3.00
2023-03-26T12:30:29.743Z,3.03
2023-03-26T12:32:59.473Z,3.27
2023-03-26T12:35:28.171Z,2.97
2023-03-26T12:37:56.458Z,2.93
2023-03-26T12:40:30.497Z,3.57
2023-03-26T12:44:56.290Z,3.87
2023-03-26T12:47:15.069Z,3.70
2023-03-26T12:48:38.027Z,3.20
2023-03-26T12:51:11.951Z,3.70
2023-03-26T12:53:52.844Z,2.67
2023-03-26T12:56:26.636Z,2.37
2023-03-26T12:59:11.500Z,3.20
2023-03-26T13:01:54.194Z,3.10
2023-03-26T13:04:51.913Z,3.33
2023-03-26T13:07:33.798Z,2.67
2023-03-26T13:10:24.584Z,2.60
2023-03-26T13:12:54.829Z,2.70
2023-03-26T13:15:30.346Z,3.40
2023-03-26T13:18:07.755Z,2.50
2023-03-26T13:20:47.732Z,2.70
2023-03-26T13:23:26.156Z,2.70
2023-03-26T13:26:01.294Z,2.63
2023-03-26T13:28:36.881Z,2.80
2023-03-26T13:31:08.798Z,2.07
2023-03-26T13:33:48.503Z,1.70
2023-03-26T13:36:24.345Z,2.20
2023-03-26T13:39:15.469Z,2.00
2023-03-26T13:42:05.996Z,1.87
2023-03-26T13:44:43.116Z,1.97
2023-03-26T13:47:14.870Z,1.97
2023-03-26T13:49:47.037Z,2.80
2023-03-26T13:52:19.237Z,2.27
2023-03-26T13:54:49.242Z,2.07
2023-03-26T13:57:22.799Z,2.60
2023-03-26T13:59:55.567Z,2.10
2023-03-26T14:02:27.582Z,1.63
2023-03-26T14:05:00.183Z,1.70
2023-03-26T14:07:32.362Z,2.80
2023-03-26T14:10:04.141Z,2.20
2023-03-26T14:12:44.064Z,1.70
2023-03-26T14:15:16.060Z,1.93
2023-03-26T14:21:48.429Z,1.50
2023-03-26T14:24:50.505Z,2.17
2023-03-26T14:27:38.196Z,1.63
2023-03-26T14:30:33.611Z,1.80
2023-03-26T14:33:12.587Z,1.80
2023-03-26T14:35:46.303Z,2.50
2023-03-26T14:38:36.710Z,2.37
2023-03-26T14:41:18.952Z,2.43
2023-03-26T14:44:19.158Z,1.90
2023-03-26T14:47:02.328Z,2.27
2023-03-26T14:49:46.054Z,2.30
2023-03-26T14:52:20.889Z,1.80
2023-03-26T14:54:53.771Z,2.00
2023-03-26T14:57:52.588Z,2.00
2023-03-26T15:00:56.509Z,1.73
2023-03-26T15:04:28.446Z,1.73
2023-03-26T15:07:22.302Z,1.77
2023-03-26T15:10:30.704Z,1.50
2023-03-26T15:13:21.700Z,1.77
2023-03-26T15:16:26.159Z,1.90
2023-03-26T15:19:27.118Z,1.80
2023-03-26T15:22:30.304Z,1.70
2023-03-26T15:25:22.005Z,1.47
2023-03-26T15:28:41.877Z,1.70
2023-03-26T15:31:27.983Z,2.10
2023-03-26T15:34:46.633Z,1.20
2023-03-26T15:37:41.168Z,2.13
2023-03-26T15:40:27.650Z,2.07
2023-03-26T15:43:03.704Z,2.17
2023-03-26T15:45:33.771Z,1.60
2023-03-26T15:48:21.404Z,2.60
2023-03-26T15:50:53.486Z,2.13
2023-03-26T15:53:37.855Z,2.73
2023-03-26T15:56:16.627Z,1.97
2023-03-26T15:58:51.373Z,2.20
2023-03-26T16:01:28.648Z,2.67
2023-03-26T16:04:10.401Z,2.57
2023-03-26T16:06:49.124Z,2.83
2023-03-26T16:09:33.163Z,3.37
2023-03-26T16:12:04.168Z,3.43
2023-03-26T16:14:43.346Z,2.97
2023-03-26T16:17:16.523Z,2.80
2023-03-26T16:19:59.003Z,2.90
2023-03-26T16:22:44.633Z,2.70
2023-03-26T16:25:32.769Z,2.87
2023-03-26T16:28:32.520Z,2.77
2023-03-26T16:31:37.084Z,2.47
2023-03-26T16:34:27.682Z,3.83
2023-03-26T16:36:59.165Z,3.63
2023-03-26T16:39:39.815Z,3.53
2023-03-26T16:42:40.427Z,3.40
2023-03-26T16:45:19.656Z,3.30
2023-03-26T16:47:53.921Z,4.50
2023-03-26T16:50:26.601Z,3.63
2023-03-26T16:53:05.027Z,2.87
2023-03-26T16:55:39.360Z,2.83
2023-03-26T16:58:22.045Z,2.63
2023-03-26T17:00:51.275Z,2.93
2023-03-26T17:03:31.438Z,3.60
2023-03-26T17:06:23.150Z,3.00
2023-03-26T17:08:58.646Z,3.27
2023-03-26T17:11:32.578Z,2.90
2023-03-26T17:14:10.679Z,16.43
2023-03-26T17:16:43.399Z,14.20
2023-03-26T17:19:23.074Z,4.00
2023-03-26T17:21:55.941Z,3.67
2023-03-26T17:24:33.580Z,3.00
2023-03-26T17:27:07.096Z,3.33
2023-03-26T17:30:00.198Z,3.10
2023-03-26T17:32:53.224Z,3.57
2023-03-26T17:35:36.460Z,3.93
2023-03-26T17:38:03.835Z,4.97
2023-03-26T17:40:48.533Z,3.80
2023-03-26T17:43:48.921Z,3.20
2023-03-26T17:46:33.965Z,2.30
2023-03-26T17:49:05.087Z,1.17
2023-03-26T17:51:47.298Z,1.57
2023-03-26T17:54:19.690Z,1.67
2023-03-26T17:56:48.551Z,2.07
2023-03-26T17:59:19.542Z,2.20
2023-03-26T18:01:46.868Z,2.27
2023-03-26T18:04:19.001Z,1.27
2023-03-26T18:07:05.938Z,1.80
2023-03-26T18:09:47.017Z,1.93
2023-03-26T18:13:04.752Z,2.10
2023-03-26T18:15:42.773Z,1.43
2023-03-26T18:18:16.401Z,1.67
2023-03-26T18:20:44.225Z,2.50
2023-03-26T18:23:20.708Z,1.40
2023-03-26T18:25:52.125Z,1.67
2023-03-26T18:28:18.772Z,1.90
2023-03-26T18:30:48.626Z,1.80
2023-03-26T18:33:15.912Z,1.90
2023-03-26T18:35:44.771Z,1.43
2023-03-26T18:38:15.743Z,1.70
2023-03-26T18:40:44.837Z,2.00
2023-03-26T18:43:25.357Z,1.90
2023-03-26T18:46:03.977Z,2.10
2023-03-26T18:48:30.782Z,2.07
2023-03-26T18:51:05.737Z,2.33
2023-03-26T18:53:37.587Z,1.73
2023-03-26T18:56:18.530Z,1.80
2023-03-26T18:58:50.854Z,2.10
2023-03-26T19:01:25.862Z,1.53
2023-03-26T19:03:53.798Z,2.10
2023-03-26T19:06:21.145Z,2.00
2023-03-26T19:08:48.464Z,1.50
2023-03-26T19:11:17.473Z,1.80
2023-03-26T19:13:50.029Z,1.60
2023-03-26T19:16:23.100Z,2.10
2023-03-26T19:18:52.970Z,1.40
2023-03-26T19:21:20.672Z,1.97
2023-03-26T19:23:47.641Z,2.57
2023-03-26T19:26:15.090Z,1.73
2023-03-26T19:28:43.917Z,1.90
2023-03-26T19:31:19.258Z,1.80
2023-03-26T19:33:54.991Z,2.20
2023-03-26T19:36:24.693Z,2.10
2023-03-26T19:38:52.965Z,1.97
2023-03-26T19:41:22.399Z,2.80
2023-03-26T19:43:49.677Z,1.70
2023-03-26T19:46:16.638Z,1.70
2023-03-26T19:48:47.624Z,1.83
2023-03-26T19:51:22.918Z,2.10
2023-03-26T19:53:53.181Z,2.13
2023-03-26T19:56:20.848Z,2.77
2023-03-26T19:58:47.947Z,1.70
2023-03-26T20:01:16.931Z,2.77
2023-03-26T20:03:46.407Z,1.70
2023-03-26T20:06:16.318Z,1.73
2023-03-26T20:08:43.033Z,2.03
2023-03-26T20:11:15.206Z,1.90
2023-03-26T20:13:41.926Z,1.77
2023-03-26T20:16:14.646Z,1.63
2023-03-26T20:18:41.370Z,2.77
2023-03-26T20:21:10.770Z,2.17
2023-03-26T20:23:39.027Z,3.33
2023-03-26T20:26:05.981Z,2.00
2023-03-26T20:28:38.845Z,2.10
2023-03-26T20:31:17.421Z,2.50
2023-03-26T20:33:44.174Z,2.40
2023-03-26T20:36:13.045Z,3.10
2023-03-26T20:38:41.645Z,1.70
2023-03-26T20:41:12.903Z,2.57
2023-03-26T20:43:39.927Z,2.20
2023-03-26T20:46:06.693Z,2.50
2023-03-26T20:48:33.362Z,2.30
2023-03-26T20:51:00.114Z,2.87
2023-03-26T20:53:26.849Z,3.03
2023-03-26T20:55:54.997Z,2.63
2023-03-26T20:58:31.026Z,1.90
2023-03-26T21:01:00.732Z,2.93
2023-03-26T21:03:27.627Z,2.63
2023-03-26T21:05:54.356Z,2.83
2023-03-26T21:08:21.605Z,2.90
2023-03-26T21:10:48.791Z,2.70
2023-03-26T21:13:30.660Z,3.03
2023-03-26T21:15:59.474Z,2.77
2023-03-26T21:18:28.185Z,2.70
2023-03-26T21:21:14.083Z,2.30
2023-03-26T21:23:52.894Z,2.13
2023-03-26T21:26:30.396Z,2.83
2023-03-26T21:28:58.732Z,1.97
2023-03-26T21:31:26.019Z,2.40
2023-03-26T21:33:53.220Z,3.03
2023-03-26T21:36:20.556Z,2.43
2023-03-26T21:38:47.772Z,2.30
2023-03-26T21:41:25.693Z,2.57
2023-03-26T21:43:52.334Z,3.00
2023-03-26T21:46:20.983Z,2.53
2023-03-26T21:48:48.306Z,3.27
2023-03-26T21:51:15.826Z,2.23
2023-03-26T21:53:43.042Z,2.60
2023-03-26T21:56:20.083Z,2.47
2023-03-26T21:58:54.150Z,2.50
2023-03-26T22:01:30.459Z,2.90
2023-03-26T22:04:06.208Z,1.17
2023-03-26T22:06:39.198Z,2.80
2023-03-26T22:09:06.444Z,1.63
2023-03-26T22:11:33.103Z,3.73
2023-03-26T22:13:59.985Z,3.40
2023-03-26T22:16:28.132Z,3.33
2023-03-26T22:18:54.814Z,3.43
2023-03-26T22:21:21.508Z,3.30
2023-03-26T22:23:48.232Z,1.67
2023-03-26T22:26:14.909Z,2.07
2023-03-26T22:28:41.614Z,2.70
2023-03-26T22:31:09.333Z,2.40
2023-03-26T22:33:38.533Z,4.20
2023-03-26T22:36:06.147Z,3.00
2023-03-26T22:38:51.863Z,2.50
2023-03-26T22:41:18.527Z,2.23
2023-03-26T22:43:45.190Z,2.20
2023-03-26T22:46:12.153Z,3.07
2023-03-26T22:48:40.164Z,1.97
2023-03-26T22:51:08.849Z,2.40
2023-03-26T22:53:36.186Z,3.20
2023-03-26T22:56:03.464Z,2.60
2023-03-26T22:58:30.826Z,2.87
2023-03-26T23:01:02.707Z,3.23
2023-03-26T23:03:35.298Z,2.27
2023-03-26T23:06:05.746Z,3.37
2023-03-26T23:08:33.631Z,2.07
2023-03-26T23:11:00.438Z,2.50
2023-03-26T23:13:27.502Z,3.60
2023-03-26T23:15:55.502Z,2.97
2023-03-26T23:18:22.996Z,3.47
2023-03-26T23:20:50.189Z,2.27
2023-03-26T23:23:19.480Z,2.93
2023-03-26T23:25:46.152Z,2.17
2023-03-26T23:28:12.855Z,2.43
2023-03-26T23:30:39.626Z,2.67
2023-03-26T23:33:06.407Z,2.30
2023-03-26T23:35:33.128Z,3.30
2023-03-26T23:37:59.822Z,3.00
2023-03-26T23:40:27.783Z,2.47
2023-03-26T23:42:54.406Z,2.40
2023-03-26T23:45:21.081Z,3.33
2023-03-26T23:47:47.785Z,3.93
2023-03-26T23:50:14.517Z,2.50
2023-03-26T23:52:41.186Z,2.90
2023-03-26T23:55:08.637Z,2.27
2023-03-26T23:57:36.815Z,2.50
